createdAt,value
2022-09-07T00:00:40.219Z,0.40
2022-09-07T00:03:08.401Z,0.57
2022-09-07T00:05:42.556Z,0.47
2022-09-07T00:08:12.865Z,0.60
2022-09-07T00:10:40.456Z,0.60
2022-09-07T00:13:09.056Z,1.00
2022-09-07T00:15:40.479Z,0.60
2022-09-07T00:18:08.050Z,0.60
2022-09-07T00:20:35.834Z,0.50
2022-09-07T00:23:03.337Z,0.60
2022-09-07T00:25:32.281Z,0.57
2022-09-07T00:28:00.194Z,0.70
2022-09-07T00:30:27.714Z,0.70
2022-09-07T00:32:55.151Z,0.70
2022-09-07T00:35:22.593Z,0.60
2022-09-07T00:37:50.040Z,0.60
2022-09-07T00:40:17.671Z,0.70
2022-09-07T00:42:46.469Z,0.70
2022-09-07T00:45:17.014Z,0.60
2022-09-07T00:47:53.911Z,0.47
2022-09-07T00:50:27.062Z,0.47
2022-09-07T00:52:59.333Z,0.50
2022-09-07T00:55:28.488Z,0.47
2022-09-07T00:57:58.503Z,0.60
2022-09-07T01:00:27.250Z,0.77
2022-09-07T01:02:57.755Z,0.70
2022-09-07T01:05:29.162Z,0.82
2022-09-07T01:07:57.551Z,0.60
2022-09-07T01:10:31.717Z,0.90
2022-09-07T01:13:00.617Z,0.80
2022-09-07T01:15:41.649Z,0.70
2022-09-07T01:18:16.162Z,0.80
2022-09-07T01:21:05.676Z,0.88
2022-09-07T01:24:02.204Z,0.80
2022-09-07T01:27:04.896Z,0.70
2022-09-07T01:29:40.145Z,0.70
2022-09-07T01:32:13.789Z,0.85
2022-09-07T01:34:44.380Z,0.95
2022-09-07T01:37:21.786Z,0.88
2022-09-07T01:39:55.338Z,1.10
2022-09-07T01:42:30.271Z,1.27
2022-09-07T01:45:02.562Z,0.90
2022-09-07T01:47:34.873Z,0.70
2022-09-07T01:50:08.262Z,2.58
2022-09-07T01:52:42.336Z,9.80
2022-09-07T01:55:17.749Z,4.43
2022-09-07T01:57:48.588Z,3.22
2022-09-07T02:00:19.971Z,2.20
2022-09-07T02:02:52.448Z,1.90
2022-09-07T02:05:25.720Z,1.37
2022-09-07T02:07:58.363Z,1.25
2022-09-07T02:10:32.536Z,1.27
2022-09-07T02:13:06.758Z,1.40
2022-09-07T02:15:45.445Z,2.60
2022-09-07T02:18:14.792Z,5.73
2022-09-07T02:20:47.627Z,4.25
2022-09-07T02:23:19.481Z,4.43
2022-09-07T02:25:52.003Z,3.42
2022-09-07T02:28:24.504Z,2.25
2022-09-07T02:30:53.439Z,2.23
2022-09-07T02:33:21.475Z,2.60
2022-09-07T02:35:49.138Z,1.55
2022-09-07T02:38:16.708Z,1.45
2022-09-07T02:40:44.288Z,1.00
2022-09-07T02:43:12.601Z,1.23
2022-09-07T02:45:55.501Z,2.17
2022-09-07T02:48:36.251Z,2.08
2022-09-07T02:51:12.667Z,1.77
2022-09-07T02:53:55.909Z,2.33
2022-09-07T02:56:35.704Z,2.10
2022-09-07T02:59:12.110Z,2.33
2022-09-07T03:01:50.063Z,1.85
2022-09-07T03:04:24.692Z,1.60
2022-09-07T03:06:56.104Z,1.20
2022-09-07T03:09:28.768Z,1.10
2022-09-07T03:11:56.382Z,1.35
2022-09-07T03:14:26.220Z,2.75
2022-09-07T03:16:56.772Z,0.73
2022-09-07T03:19:25.596Z,1.00
2022-09-07T03:21:53.112Z,0.80
2022-09-07T03:24:20.607Z,0.90
2022-09-07T03:26:50.421Z,1.05
2022-09-07T03:29:18.310Z,1.00
2022-09-07T03:31:46.012Z,1.73
2022-09-07T03:34:13.720Z,4.00
2022-09-07T03:36:42.639Z,2.72
2022-09-07T03:39:12.535Z,5.53
2022-09-07T03:41:40.073Z,1.77
2022-09-07T03:44:08.580Z,1.60
2022-09-07T03:46:36.152Z,2.03
2022-09-07T03:49:03.876Z,2.00
2022-09-07T03:51:31.393Z,4.20
2022-09-07T03:54:00.564Z,3.78
2022-09-07T03:56:28.082Z,2.75
2022-09-07T03:58:56.249Z,2.03
2022-09-07T04:01:26.943Z,2.75
2022-09-07T04:04:01.941Z,1.98
2022-09-07T04:06:30.429Z,1.67
2022-09-07T04:08:58.014Z,2.60
2022-09-07T04:11:26.838Z,2.20
2022-09-07T04:13:54.320Z,2.92
2022-09-07T04:16:23.406Z,2.47
2022-09-07T04:18:51.398Z,3.38
2022-09-07T04:21:19.232Z,2.40
2022-09-07T04:23:47.014Z,2.23
2022-09-07T04:26:16.488Z,2.17
2022-09-07T04:28:45.611Z,2.15
2022-09-07T04:31:13.872Z,1.98
2022-09-07T04:33:41.511Z,2.35
2022-09-07T04:36:09.971Z,2.13
2022-09-07T04:38:39.790Z,1.98
2022-09-07T04:41:09.403Z,2.30
2022-09-07T04:43:38.728Z,2.03
2022-09-07T04:46:09.725Z,2.05
2022-09-07T04:48:37.563Z,1.90
2022-09-07T04:51:06.515Z,2.03
2022-09-07T04:53:34.308Z,1.80
2022-09-07T04:56:02.147Z,1.70
2022-09-07T04:58:30.001Z,1.60
2022-09-07T05:01:01.817Z,1.70
2022-09-07T05:03:31.100Z,1.60
2022-09-07T05:06:01.507Z,2.00
2022-09-07T05:08:29.100Z,1.52
2022-09-07T05:10:57.649Z,1.60
2022-09-07T05:13:25.457Z,1.70
2022-09-07T05:15:52.882Z,1.55
2022-09-07T05:18:21.172Z,1.80
2022-09-07T05:20:50.011Z,1.70
2022-09-07T05:23:17.575Z,1.50
2022-09-07T05:25:46.237Z,1.67
2022-09-07T05:28:19.102Z,1.83
2022-09-07T05:36:25.485Z,1.88
2022-09-07T05:38:52.971Z,1.80
2022-09-07T05:41:22.752Z,1.77
2022-09-07T05:46:37.713Z,1.60
2022-09-07T05:49:05.167Z,1.65
2022-09-07T05:51:33.972Z,1.57
2022-09-07T05:54:01.423Z,1.70
2022-09-07T05:56:28.845Z,1.60
2022-09-07T05:58:56.308Z,1.50
2022-09-07T06:01:23.734Z,1.48
2022-09-07T06:03:51.215Z,1.50
2022-09-07T06:06:19.713Z,1.50
2022-09-07T06:08:50.248Z,1.60
2022-09-07T06:11:19.926Z,1.60
2022-09-07T06:13:47.510Z,1.30
2022-09-07T06:16:15.967Z,1.80
2022-09-07T06:18:45.388Z,1.50
2022-09-07T06:21:14.358Z,1.30
2022-09-07T06:23:43.456Z,1.20
2022-09-07T06:26:13.608Z,1.50
2022-09-07T06:28:43.017Z,1.40
2022-09-07T06:31:12.876Z,1.40
2022-09-07T06:33:40.990Z,1.80
2022-09-07T06:36:11.921Z,1.27
2022-09-07T06:38:40.089Z,1.52
2022-09-07T06:43:58.724Z,1.15
2022-09-07T06:49:14.095Z,1.30
2022-09-07T06:51:41.550Z,1.35
2022-09-07T06:56:57.811Z,1.25
2022-09-07T06:59:26.683Z,1.63
2022-09-07T07:01:54.128Z,1.58
2022-09-07T07:04:21.752Z,1.17
2022-09-07T07:06:49.217Z,1.20
2022-09-07T07:09:16.685Z,1.10
2022-09-07T07:11:47.219Z,0.95
2022-09-07T07:14:15.406Z,1.30
2022-09-07T07:16:44.283Z,1.20
2022-09-07T07:19:11.760Z,1.43
2022-09-07T07:22:03.441Z,1.10
2022-09-07T07:24:26.609Z,1.30
2022-09-07T07:26:54.063Z,1.15
2022-09-07T07:29:23.879Z,1.40
2022-09-07T07:31:53.868Z,1.10
2022-09-07T07:34:21.420Z,1.42
2022-09-07T07:36:48.859Z,1.20
2022-09-07T07:42:05.909Z,1.27
2022-09-07T07:44:33.934Z,1.07
2022-09-07T07:47:02.881Z,1.10
2022-09-07T07:49:30.820Z,1.27
2022-09-07T07:54:45.854Z,0.93
2022-09-07T07:57:13.295Z,1.03
2022-09-07T07:59:40.974Z,1.00
2022-09-07T08:02:15.577Z,0.98
2022-09-07T08:04:43.327Z,1.10
2022-09-07T08:07:11.802Z,1.00
2022-09-07T08:09:41.233Z,1.17
2022-09-07T08:12:09.629Z,1.05
2022-09-07T08:14:40.565Z,0.80
2022-09-07T08:17:09.945Z,1.00
2022-09-07T08:19:37.581Z,1.02
2022-09-07T08:22:05.012Z,1.00
2022-09-07T08:24:32.516Z,1.02
2022-09-07T08:27:00.040Z,1.20
2022-09-07T08:29:31.256Z,1.27
2022-09-07T08:32:01.271Z,1.15
2022-09-07T08:34:30.170Z,1.20
2022-09-07T08:36:57.587Z,0.90
2022-09-07T08:39:25.024Z,1.02
2022-09-07T08:42:04.624Z,1.10
2022-09-07T08:44:35.781Z,1.30
2022-09-07T08:47:13.078Z,1.00
2022-09-07T08:49:47.636Z,1.10
2022-09-07T08:52:20.239Z,1.20
2022-09-07T08:55:03.534Z,1.10
2022-09-07T08:57:37.732Z,1.10
2022-09-07T09:00:08.695Z,1.47
2022-09-07T09:02:42.223Z,1.30
2022-09-07T09:05:25.515Z,1.48
2022-09-07T09:08:05.851Z,1.30
2022-09-07T09:10:41.371Z,1.30
2022-09-07T09:13:18.114Z,1.30
2022-09-07T09:15:53.672Z,1.60
2022-09-07T09:18:42.131Z,1.30
2022-09-07T09:21:15.409Z,1.40
2022-09-07T09:23:45.522Z,1.20
2022-09-07T09:26:17.463Z,1.60
2022-09-07T09:28:44.889Z,1.75
2022-09-07T09:31:18.802Z,1.60
2022-09-07T09:34:11.089Z,1.60
2022-09-07T09:36:45.439Z,1.77
2022-09-07T09:39:31.427Z,1.60
2022-09-07T09:42:13.904Z,2.00
2022-09-07T09:44:42.843Z,1.80
2022-09-07T09:47:32.310Z,2.00
2022-09-07T09:50:02.969Z,1.90
2022-09-07T09:52:43.946Z,2.00
2022-09-07T09:55:34.525Z,1.92
2022-09-07T10:04:02.734Z,2.00
2022-09-07T10:06:32.025Z,1.87
2022-09-07T10:09:02.799Z,1.80
2022-09-07T10:14:34.525Z,2.13
2022-09-07T10:17:11.016Z,2.10
2022-09-07T10:19:40.419Z,2.00
2022-09-07T10:22:22.981Z,1.30
2022-09-07T10:24:52.354Z,1.58
2022-09-07T10:27:21.786Z,1.40
2022-09-07T10:29:49.228Z,1.63
2022-09-07T10:32:28.389Z,1.60
2022-09-07T10:35:07.520Z,1.67
2022-09-07T10:37:45.216Z,1.50
2022-09-07T10:40:25.866Z,1.30
2022-09-07T10:46:03.012Z,1.30
2022-09-07T10:48:38.148Z,1.30
2022-09-07T10:51:14.641Z,1.10
2022-09-07T10:54:29.982Z,1.23
2022-09-07T10:56:44.452Z,1.27
2022-09-07T11:00:07.423Z,1.00
2022-09-07T11:02:25.915Z,1.10
2022-09-07T11:05:04.663Z,1.10
2022-09-07T11:07:55.467Z,0.90
2022-09-07T11:10:33.314Z,0.90
2022-09-07T11:13:05.981Z,0.80
2022-09-07T11:15:40.850Z,0.80
2022-09-07T11:18:13.976Z,0.70
2022-09-07T11:20:47.064Z,0.90
2022-09-07T11:23:20.440Z,0.85
2022-09-07T11:25:57.871Z,0.70
2022-09-07T11:28:29.513Z,0.77
2022-09-07T11:31:01.103Z,0.70
2022-09-07T11:33:32.858Z,0.80
2022-09-07T11:36:03.661Z,0.82
2022-09-07T11:38:36.032Z,0.90
2022-09-07T11:41:17.970Z,0.80
2022-09-07T11:43:50.269Z,0.80
2022-09-07T11:46:24.161Z,1.00
2022-09-07T11:48:54.815Z,0.65
2022-09-07T11:51:27.150Z,0.60
2022-09-07T11:53:58.033Z,0.65
2022-09-07T11:56:29.852Z,0.70
2022-09-07T11:59:32.514Z,0.68
2022-09-07T12:02:42.098Z,0.50
2022-09-07T12:05:25.129Z,0.50
2022-09-07T12:08:09.680Z,0.77
2022-09-07T12:10:51.300Z,0.50
2022-09-07T12:13:55.792Z,0.50
2022-09-07T12:16:39.275Z,0.50
2022-09-07T12:19:18.739Z,0.90
2022-09-07T12:21:50.270Z,0.70
2022-09-07T12:24:44.083Z,0.60
2022-09-07T12:27:27.673Z,0.50
2022-09-07T12:30:29.008Z,0.60
2022-09-07T12:33:05.819Z,0.70
2022-09-07T12:35:39.602Z,0.60
2022-09-07T12:38:40.210Z,0.50
2022-09-07T12:41:23.034Z,0.55
2022-09-07T12:44:07.324Z,0.68
2022-09-07T12:46:55.728Z,0.60
2022-09-07T12:49:47.891Z,0.50
2022-09-07T12:52:37.901Z,0.60
2022-09-07T12:55:28.074Z,0.60
2022-09-07T12:58:05.062Z,0.77
2022-09-07T13:00:45.810Z,0.70
2022-09-07T13:09:32.133Z,0.68
2022-09-07T13:12:00.548Z,0.70
2022-09-07T13:14:29.855Z,0.70
2022-09-07T13:17:28.063Z,0.75
2022-09-07T13:20:17.715Z,0.75
2022-09-07T13:23:19.307Z,0.68
2022-09-07T13:25:50.402Z,0.63
2022-09-07T13:28:26.333Z,0.67
2022-09-07T13:31:06.750Z,0.80
2022-09-07T13:33:52.755Z,0.75
2022-09-07T13:36:25.436Z,0.80
2022-09-07T13:38:55.372Z,0.80
2022-09-07T13:41:26.490Z,0.60
2022-09-07T13:44:00.194Z,0.60
2022-09-07T13:46:40.239Z,0.50
2022-09-07T13:49:18.724Z,0.60
2022-09-07T13:51:54.004Z,0.80
2022-09-07T13:54:31.905Z,0.50
2022-09-07T13:57:10.339Z,0.60
2022-09-07T13:59:38.076Z,0.52
2022-09-07T14:02:23.543Z,0.60
2022-09-07T14:04:54.681Z,0.73
2022-09-07T14:07:24.491Z,0.60
2022-09-07T14:10:12.800Z,0.65
2022-09-07T14:12:46.883Z,0.60
2022-09-07T14:15:29.976Z,0.70
2022-09-07T14:18:04.949Z,0.75
2022-09-07T14:20:37.761Z,0.60
2022-09-07T14:23:12.014Z,0.80
2022-09-07T14:28:34.405Z,0.80
2022-09-07T14:31:02.240Z,0.90
2022-09-07T14:33:31.122Z,0.60
2022-09-07T14:35:59.404Z,1.00
2022-09-07T14:41:19.644Z,0.88
2022-09-07T14:43:58.016Z,1.00
2022-09-07T14:46:27.883Z,1.00
2022-09-07T14:48:57.772Z,0.68
2022-09-07T14:51:35.062Z,0.75
2022-09-07T14:54:05.814Z,0.70
2022-09-07T14:56:36.240Z,0.70
2022-09-07T14:59:26.972Z,0.80
2022-09-07T15:02:23.901Z,0.60
2022-09-07T15:05:18.834Z,0.70
2022-09-07T15:07:48.721Z,0.70
2022-09-07T15:10:26.745Z,0.60
2022-09-07T15:12:57.025Z,0.70
2022-09-07T15:15:27.173Z,1.35
2022-09-07T15:17:58.974Z,0.60
2022-09-07T15:20:39.609Z,0.60
2022-09-07T15:23:10.781Z,0.68
2022-09-07T15:25:40.400Z,0.60
2022-09-07T15:33:59.917Z,0.65
2022-09-07T15:36:28.657Z,0.90
2022-09-07T15:38:59.893Z,0.93
2022-09-07T15:41:28.457Z,0.82
2022-09-07T15:43:57.507Z,0.80
2022-09-07T15:46:25.343Z,0.80
2022-09-07T15:48:55.359Z,0.70
2022-09-07T15:54:13.708Z,0.90
2022-09-07T15:56:42.805Z,0.70
2022-09-07T15:59:12.761Z,0.60
2022-09-07T16:01:56.014Z,0.70
2022-09-07T16:04:24.314Z,0.73
2022-09-07T16:06:51.855Z,0.65
2022-09-07T16:09:21.785Z,0.70
2022-09-07T16:11:51.196Z,0.65
2022-09-07T16:14:20.219Z,0.88
2022-09-07T16:19:35.993Z,0.70
2022-09-07T16:22:04.034Z,0.68
2022-09-07T16:24:31.601Z,0.73
2022-09-07T16:26:59.037Z,0.63
2022-09-07T16:29:27.971Z,0.60
2022-09-07T16:34:42.847Z,0.90
2022-09-07T16:37:10.355Z,0.82
2022-09-07T16:39:37.864Z,0.80
2022-09-07T16:42:05.919Z,0.70
2022-09-07T16:44:34.946Z,1.10
2022-09-07T16:47:02.488Z,0.80
2022-09-07T16:49:29.912Z,0.70
2022-09-07T16:51:58.948Z,0.80
2022-09-07T16:54:26.460Z,0.90
2022-09-07T16:56:53.894Z,0.60
2022-09-07T16:59:26.112Z,0.60
2022-09-07T17:01:55.284Z,0.80
2022-09-07T17:04:23.005Z,0.60
2022-09-07T17:06:52.334Z,0.80
2022-09-07T17:09:20.461Z,0.77
2022-09-07T17:11:47.885Z,0.88
2022-09-07T17:14:15.319Z,0.70
2022-09-07T17:16:43.052Z,0.77
2022-09-07T17:19:31.659Z,0.60
2022-09-07T17:21:59.867Z,0.80
2022-09-07T17:24:29.582Z,0.80
2022-09-07T17:26:59.611Z,0.80
2022-09-07T17:29:30.215Z,0.73
2022-09-07T17:34:47.850Z,0.60
2022-09-07T17:37:15.388Z,0.80
2022-09-07T17:39:42.947Z,0.70
2022-09-07T17:42:10.461Z,0.70
2022-09-07T17:44:38.526Z,0.70
2022-09-07T17:47:06.436Z,0.65
2022-09-07T17:49:33.899Z,0.90
2022-09-07T17:52:03.180Z,0.70
2022-09-07T17:54:30.964Z,0.90
2022-09-07T17:56:58.399Z,0.70
2022-09-07T18:02:14.338Z,0.80
2022-09-07T18:04:42.567Z,1.08
2022-09-07T18:07:11.779Z,0.85
2022-09-07T18:09:39.390Z,1.20
2022-09-07T18:12:07.304Z,0.70
2022-09-07T18:14:34.827Z,1.00
2022-09-07T18:17:02.445Z,0.98
2022-09-07T18:19:29.937Z,0.77
2022-09-07T18:21:57.657Z,1.00
2022-09-07T18:24:27.283Z,1.13
2022-09-07T18:26:55.085Z,1.20
2022-09-07T18:29:30.071Z,0.95
2022-09-07T18:32:00.064Z,1.17
2022-09-07T18:34:28.571Z,0.90
2022-09-07T18:36:57.091Z,1.33
2022-09-07T18:39:25.915Z,1.30
2022-09-07T18:41:54.719Z,1.02
2022-09-07T18:47:17.592Z,1.10
2022-09-07T18:49:48.856Z,1.17
2022-09-07T18:55:06.978Z,1.00
2022-09-07T18:57:36.144Z,1.10
2022-09-07T19:00:05.069Z,1.10
2022-09-07T19:02:33.320Z,1.23
2022-09-07T19:07:48.220Z,1.17
2022-09-07T19:10:17.670Z,1.10
2022-09-07T19:12:46.045Z,1.30
2022-09-07T19:15:14.031Z,1.10
2022-09-07T19:17:41.515Z,1.20
2022-09-07T19:20:10.211Z,1.17
2022-09-07T19:22:37.664Z,1.23
2022-09-07T19:25:06.004Z,1.20
2022-09-07T19:27:34.861Z,1.33
2022-09-07T19:30:02.748Z,1.25
2022-09-07T19:32:30.511Z,1.30
2022-09-07T19:34:57.922Z,1.10
2022-09-07T19:37:26.072Z,1.00
2022-09-07T19:39:54.915Z,1.45
2022-09-07T19:42:23.495Z,1.25
2022-09-07T19:44:53.005Z,1.30
2022-09-07T19:47:20.893Z,1.20
2022-09-07T19:49:48.518Z,1.53
2022-09-07T19:52:16.481Z,1.27
2022-09-07T19:54:44.193Z,1.08
2022-09-07T19:57:11.610Z,1.30
2022-09-07T19:59:39.329Z,1.40
2022-09-07T20:02:09.877Z,1.07
2022-09-07T20:04:37.292Z,1.10
2022-09-07T20:07:06.515Z,1.23
2022-09-07T20:09:33.965Z,1.50
2022-09-07T20:12:03.621Z,1.50
2022-09-07T20:14:31.077Z,1.23
2022-09-07T20:16:58.537Z,1.30
2022-09-07T20:19:27.455Z,1.70
2022-09-07T20:21:55.636Z,1.50
2022-09-07T20:24:23.245Z,1.52
2022-09-07T20:26:50.659Z,1.40
2022-09-07T20:29:33.813Z,1.35
2022-09-07T20:32:01.881Z,1.70
2022-09-07T20:34:32.034Z,1.17
2022-09-07T20:36:59.484Z,1.60
2022-09-07T20:39:27.034Z,0.90
2022-09-07T20:41:54.519Z,1.75
2022-09-07T20:44:21.986Z,1.15
2022-09-07T20:46:49.753Z,1.48
2022-09-07T20:49:17.225Z,1.30
2022-09-07T20:51:45.976Z,1.90
2022-09-07T20:54:13.507Z,1.50
2022-09-07T20:56:40.937Z,1.70
2022-09-07T20:59:08.403Z,1.60
2022-09-07T21:01:36.471Z,1.42
2022-09-07T21:04:05.981Z,1.30
2022-09-07T21:06:33.901Z,1.77
2022-09-07T21:09:02.754Z,1.85
2022-09-07T21:11:32.070Z,1.50
2022-09-07T21:14:01.034Z,1.48
2022-09-07T21:16:29.033Z,1.60
2022-09-07T21:18:58.047Z,1.60
2022-09-07T21:21:27.456Z,1.70
2022-09-07T21:23:59.315Z,1.88
2022-09-07T21:26:29.146Z,1.30
2022-09-07T21:28:57.729Z,1.50
2022-09-07T21:31:26.454Z,1.50
2022-09-07T21:33:55.292Z,2.08
2022-09-07T21:36:22.780Z,1.58
2022-09-07T21:38:51.129Z,1.42
2022-09-07T21:41:20.320Z,1.80
2022-09-07T21:43:49.062Z,1.52
2022-09-07T21:46:18.100Z,1.90
2022-09-07T21:48:46.591Z,1.73
2022-09-07T21:51:14.683Z,1.73
2022-09-07T21:53:42.481Z,1.40
2022-09-07T21:56:12.455Z,1.83
2022-09-07T21:58:40.337Z,1.65
2022-09-07T22:01:29.340Z,1.95
2022-09-07T22:03:59.188Z,2.08
2022-09-07T22:06:28.201Z,1.43
2022-09-07T22:08:56.625Z,1.77
2022-09-07T22:11:25.573Z,1.90
2022-09-07T22:13:55.411Z,1.60
2022-09-07T22:16:23.360Z,1.63
2022-09-07T22:18:52.248Z,1.60
2022-09-07T22:21:22.231Z,1.48
2022-09-07T22:23:51.838Z,1.23
2022-09-07T22:26:21.691Z,1.55
2022-09-07T22:28:49.696Z,1.67
2022-09-07T22:31:19.271Z,1.77
2022-09-07T22:33:48.088Z,1.50
2022-09-07T22:36:19.055Z,1.73
2022-09-07T22:38:49.398Z,1.40
2022-09-07T22:41:19.816Z,2.15
2022-09-07T22:43:48.161Z,1.47
2022-09-07T22:46:15.708Z,1.45
2022-09-07T22:48:43.908Z,1.50
2022-09-07T22:51:12.430Z,1.48
2022-09-07T22:53:42.890Z,1.42
2022-09-07T22:56:12.120Z,1.50
2022-09-07T22:58:39.939Z,1.70
2022-09-07T23:01:08.043Z,1.65
2022-09-07T23:03:36.192Z,1.33
2022-09-07T23:06:04.042Z,1.60
2022-09-07T23:08:31.817Z,1.60
2022-09-07T23:11:05.128Z,1.58
2022-09-07T23:13:33.506Z,1.60
2022-09-07T23:16:05.448Z,1.50
2022-09-07T23:18:33.147Z,1.25
2022-09-07T23:21:01.255Z,1.53
2022-09-07T23:23:29.681Z,1.33
2022-09-07T23:25:57.305Z,1.85
2022-09-07T23:28:26.057Z,1.63
2022-09-07T23:30:53.516Z,1.45
2022-09-07T23:33:20.952Z,1.57
2022-09-07T23:35:57.019Z,1.40
2022-09-07T23:38:24.927Z,1.40
2022-09-07T23:40:52.840Z,1.80
2022-09-07T23:43:20.343Z,1.60
2022-09-07T23:45:49.594Z,1.50
2022-09-07T23:48:17.491Z,1.55
2022-09-07T23:50:46.092Z,1.77
2022-09-07T23:53:14.356Z,1.67
2022-09-07T23:55:42.785Z,1.58
2022-09-07T23:58:10.737Z,1.47
